Flight Track Log - Related Links

Times and Time Zones

All times are in EST time to prevent confusion due to time zone crossing. See the CES5648 flight status page for this flight to view local times or setup timezone preferences in your user account.

Time Position Orientation Groundspeed Altitude Reporting Facility
EST Latitude Longitude Course Direction KTS MPH feet Rate Location/Type
Tue 09:26:00 AM 28.7377 118.9577 39° Northeast  Level Estimated
Tue 09:27:00 AM 28.8065 119.0222 39° Northeast  Level Estimated
Tue 09:28:00 AM 28.8752 119.0867 39° Northeast  Level Estimated
Tue 09:29:00 AM 28.9440 119.1513 39° Northeast  Level Estimated
Tue 09:30:00 AM 29.0127 119.2160 39° Northeast  Level Estimated
Tue 09:31:00 AM 29.0814 119.2807 39° Northeast  Level Estimated
Tue 09:32:00 AM 29.1500 119.3456 40° Northeast  Level Estimated
Tue 09:33:00 AM 29.2187 119.4105 40° Northeast  Level Estimated
Tue 09:34:00 AM 29.2873 119.4755 40° Northeast  Level Estimated
Tue 09:35:00 AM 29.3558 119.5406 40° Northeast  Level Estimated
Tue 09:36:00 AM 29.4244 119.6059 40° Northeast  Level Estimated
Tue 09:37:00 AM 29.4928 119.6711 40° Northeast  Level Estimated
Tue 09:38:00 AM 29.5613 119.7365 40° Northeast  Level Estimated
Tue 09:39:00 AM 29.6297 119.8020 40° Northeast  Level Estimated
Tue 09:40:00 AM 29.6981 119.8676 40° Northeast  Level Estimated
Tue 09:41:00 AM 29.7665 119.9332 40° Northeast  Level Estimated
Tue 09:42:00 AM 29.8349 119.9989 40° Northeast  Level Estimated
Tue 09:43:00 AM 29.9032 120.0648 40° Northeast  Level Estimated
Tue 09:44:00 AM 29.9714 120.1307 40° Northeast  Level Estimated
Tue 09:45:00 AM 30.0397 120.1967 40° Northeast  Level Estimated
Tue 09:46:00 AM 30.1079 120.2628 40° Northeast  Level Estimated
Tue 09:47:00 AM 30.1760 120.3290 40° Northeast  Level Estimated
Tue 09:48:00 AM 30.2442 120.3953 40° Northeast  Level Estimated
Tue 09:49:00 AM 30.3123 120.4616 40° Northeast  Level Estimated
Tue 09:50:00 AM 30.3803 120.5281 40° Northeast  Level Estimated
Tue 09:51:00 AM 30.4484 120.5947 40° Northeast  Level Estimated
Tue 09:52:00 AM 30.5164 120.6613 40° Northeast  Level Estimated
Tue 09:53:00 AM 30.5844 120.7280 40° Northeast  Level Estimated
Tue 09:54:00 AM 30.6523 120.7949 40° Northeast  Level Estimated
Tue 09:55:00 AM 30.7202 120.8618 40° Northeast  Level Estimated
Tue 09:56:00 AM 30.7881 120.9288 40° Northeast  Level Estimated
Tue 09:57:00 AM 30.8587 120.9987 40° Northeast  Level Estimated
Tue 09:58:00 AM 30.9292 121.0686 40° Northeast  Level Estimated
Tue 09:59:00 AM 30.9997 121.1387 40° Northeast  Level Estimated
Tue 10:00:00 AM 31.0702 121.2089 40° Northeast  Level Estimated
Tue 10:01:00 AM 31.1407 121.2792 40° Northeast  Level Estimated
Tue 10:02:00 AM 31.1979 121.3363 41° Northeast  Level Estimated
Tue 10:03:00 AM 31.1979 121.3363 350° North  Level Estimated
Tue 10:04:00 AM 31.1979 121.3363 350° North  Level Estimated
Tue 10:05:00 AM 31.1979 121.3363 350° North  Level Estimated
Tue 10:06:00 AM 31.1979 121.3363 350° North  Level Estimated
Tue 10:07:00 AM 31.1979 121.3363 350° North  Level Estimated
Tue 10:08:00 AM 31.1979 121.3363 350° North  Level Estimated
Tue 10:09:00 AM 31.1979 121.3363 350° North  Level Estimated
Tue 10:10:00 AM 31.1979 121.3363 350° North  Level Estimated
Tue 10:11:00 AM 31.1979 121.3363 350° North  Level Estimated
Tue 10:12:00 AM 31.1979 121.3363 350° North  Level Estimated
Tue 10:13:00 AM 31.1979 121.3363 350° North  Level Estimated
Tue 10:14:00 AM 31.1979 121.3363 350° North  Level Estimated
Tue 10:15:00 AM 31.1979 121.3363 350° North  Level Estimated
Tue 10:16:00 AM 31.1979 121.3363 350° North  Level Estimated

Login

Don't have an account? Register now (free) for customized features, flight alerts, and more!